^^

Weather Underground History

Daily Summary for March 02, 2014 Units:  Metric    English   Both
Daily Weekly Monthly Yearly Custom
  High: Low: Average:
Temperature: 8 °C 2 °C 5.9 °C
Dew Point: 6 °C 0 °C 4.6 °C
Humidity: 96% 86% 92%
Wind Speed: 43km/h 4km/h 19.5km/h
Wind Gust: 43km/h - -
Wind- - SSW
Pressure: 997.97 hPa 978.67 hPa -
Precipitation: 5.84 mm    
Historical Graphs
 
 
Tabular Data for March 02, 2014
Time Temperature Dew Point Pressure Wind Wind Speed Wind Gust Humidity Rainfall Rate (Hourly) solar
00:00 2 °C 1 °C 997.97 hPa S 4 km/h 4 km/h 87% 0 mm 0 W/m2
00:05 2 °C 0 °C 997.63 hPa S 6 km/h 6 km/h 87% 0 mm 0 W/m2
00:10 2 °C 1 °C 997.63 hPa S 6 km/h 6 km/h 88% 0 mm 0 W/m2
00:15 2 °C 1 °C 997.63 hPa S 6 km/h 6 km/h 88% 0 mm 0 W/m2
00:20 2 °C 1 °C 997.63 hPa SSW 7 km/h 7 km/h 89% 0 mm 0 W/m2
00:25 2 °C 1 °C 997.63 hPa SSW 7 km/h 7 km/h 89% 0 mm 0 W/m2
00:30 2 °C 1 °C 997.63 hPa SSW 6 km/h 6 km/h 89% 0 mm 0 W/m2
00:35 2 °C 1 °C 997.63 hPa SSW 9 km/h 9 km/h 89% 0 mm 0 W/m2
00:40 2 °C 1 °C 997.29 hPa SSW 11 km/h 11 km/h 89% 0 mm 0 W/m2
00:45 3 °C 1 °C 997.29 hPa SW 7 km/h 7 km/h 89% 0 mm 0 W/m2
00:50 3 °C 1 °C 997.29 hPa SW 4 km/h 5 km/h 89% 0 mm 0 W/m2
00:55 3 °C 1 °C 997.29 hPa SW 4 km/h 5 km/h 89% 0 mm 0 W/m2
01:00 3 °C 1 °C 997.29 hPa SSW 10 km/h 10 km/h 89% 0 mm 0 W/m2
01:05 3 °C 1 °C 997.29 hPa SSW 11 km/h 11 km/h 89% 0 mm 0 W/m2
01:10 3 °C 1 °C 996.95 hPa SSW 9 km/h 9 km/h 88% 0 mm 0 W/m2
01:15 3 °C 1 °C 996.95 hPa SW 6 km/h 8 km/h 88% 0 mm 0 W/m2
01:20 3 °C 1 °C 996.95 hPa SW 6 km/h 8 km/h 88% 0 mm 0 W/m2
01:25 3 °C 1 °C 996.95 hPa SSW 9 km/h 10 km/h 88% 0 mm 0 W/m2
01:30 3 °C 1 °C 996.95 hPa SW 7 km/h 7 km/h 88% 0 mm 0 W/m2
01:35 3 °C 1 °C 996.95 hPa SW 11 km/h 11 km/h 89% 0 mm 0 W/m2
01:40 3 °C 2 °C 996.95 hPa WSW 9 km/h 9 km/h 89% 0 mm 0 W/m2
01:45 3 °C 2 °C 996.95 hPa SW 9 km/h 9 km/h 89% 0 mm 0 W/m2
01:50 3 °C 2 °C 996.95 hPa WSW 11 km/h 11 km/h 89% 0 mm 0 W/m2
01:55 3 °C 2 °C 996.95 hPa SW 11 km/h 11 km/h 90% 0.25 mm 0 W/m2
02:00 3 °C 2 °C 996.61 hPa SSW 7 km/h 7 km/h 90% 0.51 mm 0 W/m2
02:05 3 °C 2 °C 996.61 hPa SSW 13 km/h 13 km/h 91% 0.51 mm 0 W/m2
02:10 3 °C 2 °C 996.28 hPa S 17 km/h 17 km/h 91% 0.51 mm 0 W/m2
02:15 3 °C 2 °C 996.28 hPa S 13 km/h 13 km/h 91% 0.51 mm 0 W/m2
02:20 3 °C 2 °C 996.28 hPa SSW 6 km/h 7 km/h 92% 0.51 mm 0 W/m2
02:25 3 °C 2 °C 996.28 hPa SSW 6 km/h 7 km/h 92% 0.51 mm 0 W/m2
02:31 3 °C 2 °C 996.28 hPa SSW 19 km/h 19 km/h 92% 0.51 mm 0 W/m2
02:36 4 °C 2 °C 995.94 hPa SW 15 km/h 23 km/h 92% 0.51 mm 0 W/m2
02:41 3 °C 2 °C 995.94 hPa SW 11 km/h 11 km/h 92% 0.51 mm 0 W/m2
02:46 3 °C 2 °C 995.94 hPa SW 11 km/h 11 km/h 92% 0.51 mm 0 W/m2
02:51 4 °C 3 °C 995.94 hPa SW 11 km/h 11 km/h 93% 0.25 mm 0 W/m2
02:56 4 °C 3 °C 995.94 hPa W 19 km/h 19 km/h 93% 0.51 mm 0 W/m2
03:01 4 °C 3 °C 995.94 hPa SW 15 km/h 15 km/h 93% 0 mm 0 W/m2
03:07 4 °C 3 °C 995.6 hPa SW 15 km/h 15 km/h 93% 0.51 mm 0 W/m2
03:12 4 °C 3 °C 995.6 hPa SW 19 km/h 19 km/h 93% 0.51 mm 0 W/m2
03:17 4 °C 3 °C 995.6 hPa SSW 13 km/h 13 km/h 93% 0 mm 0 W/m2
03:22 4 °C 3 °C 995.6 hPa WSW 15 km/h 15 km/h 93% 0 mm 0 W/m2
03:27 4 °C 3 °C 995.6 hPa WSW 9 km/h 9 km/h 93% 0 mm 0 W/m2
03:35 4 °C 3 °C 995.26 hPa WSW 15 km/h 15 km/h 92% 0 mm 0 W/m2
03:40 4 °C 3 °C 995.26 hPa WSW 21 km/h 21 km/h 92% 0 mm 0 W/m2
03:45 4 °C 3 °C 995.26 hPa SSW 19 km/h 19 km/h 92% 0 mm 0 W/m2
03:50 4 °C 3 °C 995.26 hPa SSW 11 km/h 11 km/h 92% 0 mm 0 W/m2
03:57 4 °C 3 °C 994.92 hPa WSW 11 km/h   92% 0 mm 0 W/m2
04:02 4 °C 3 °C 994.92 hPa SSW 15 km/h 15 km/h 92% 0 mm 0 W/m2
04:07 4 °C 3 °C 994.92 hPa SW 13 km/h 19 km/h 91% 0 mm 0 W/m2
04:12 4 °C 3 °C 994.92 hPa SW 19 km/h 19 km/h 92% 0 mm 0 W/m2
04:17 4 °C 3 °C 994.92 hPa SW 17 km/h 17 km/h 92% 0 mm 0 W/m2
04:22 4 °C 3 °C 994.92 hPa WSW 15 km/h 15 km/h 92% 0 mm 0 W/m2
04:27 4 °C 3 °C 994.58 hPa WSW 13 km/h 26 km/h 92% 0 mm 0 W/m2
04:32 4 °C 3 °C 994.92 hPa SW 18 km/h 26 km/h 92% 0 mm 0 W/m2
04:37 4 °C 3 °C 994.92 hPa WSW 21 km/h 26 km/h 92% 0 mm 0 W/m2
04:42 4 °C 3 °C 994.58 hPa WSW 17 km/h 27 km/h 92% 0 mm 0 W/m2
04:47 4 °C 3 °C 994.58 hPa SW 18 km/h 27 km/h 92% 0 mm 0 W/m2
04:52 4 °C 3 °C 994.58 hPa SW 15 km/h 23 km/h 92% 0 mm 0 W/m2
04:57 4 °C 3 °C 994.58 hPa WSW 17 km/h 26 km/h 92% 0.25 mm 0 W/m2
05:03 4 °C 3 °C 994.58 hPa WSW 16 km/h 34 km/h 91% 0.25 mm 0 W/m2
05:08 4 °C 3 °C 994.58 hPa SW 19 km/h 27 km/h 92% 0 mm 0 W/m2
05:13 4 °C 3 °C 994.58 hPa WSW 16 km/h 31 km/h 92% 0 mm 0 W/m2
05:18 4 °C 3 °C 994.58 hPa WSW 12 km/h 27 km/h 92% 0 mm 0 W/m2
05:20 4 °C 4 °C 993.91 hPa WSW 16 km/h 24 km/h 93% 0 mm 0 W/m2
05:25 5 °C 4 °C 993.91 hPa WSW 13 km/h 23 km/h 94% 0 mm 0 W/m2
05:30 5 °C 4 °C 993.91 hPa WSW 14 km/h 26 km/h 94% 0 mm 0 W/m2
05:35 5 °C 4 °C 993.57 hPa WSW 13 km/h 29 km/h 94% 0 mm 0 W/m2
05:40 5 °C 4 °C 993.57 hPa WSW 14 km/h 24 km/h 94% 0 mm 0 W/m2
05:45 5 °C 4 °C 993.57 hPa SW 11 km/h 23 km/h 94% 0 mm 0 W/m2
05:50 5 °C 4 °C 993.57 hPa WSW 11 km/h 23 km/h 94% 0 mm 0 W/m2
05:55 5 °C 4 °C 993.91 hPa WSW 14 km/h 26 km/h 94% 0 mm 0 W/m2
06:00 5 °C 4 °C 993.57 hPa WSW 13 km/h 21 km/h 94% 0 mm 0 W/m2
06:05 5 °C 4 °C 993.91 hPa WSW 16 km/h 26 km/h 94% 0 mm 5 W/m2
06:10 6 °C 4 °C 993.91 hPa WSW 16 km/h 23 km/h 94% 0 mm 5 W/m2
06:15 6 °C 4 °C 993.91 hPa WSW 11 km/h 24 km/h 94% 0 mm 7 W/m2
06:20 6 °C 4 °C 993.91 hPa SW 10 km/h 23 km/h 94% 0 mm 9 W/m2
06:25 6 °C 4 °C 993.91 hPa WSW 13 km/h 32 km/h 94% 0 mm 11 W/m2
06:30 6 °C 4 °C 993.91 hPa WSW 11 km/h 21 km/h 93% 0 mm 12 W/m2
06:35 6 °C 4 °C 993.57 hPa WSW 16 km/h 32 km/h 93% 0 mm 9 W/m2
07:20 6 °C 5 °C 993.57 hPa SW 14 km/h 23 km/h 94% 0 mm 76 W/m2
07:40 6 °C 4 °C 993.91 hPa SW 26 km/h 26 km/h 93% 0 mm 14 W/m2
07:46 6 °C 4 °C 993.91 hPa WSW 26 km/h 26 km/h 93% 0 mm 14 W/m2
07:51 6 °C 4 °C 993.57 hPa W 20 km/h 20 km/h 93% 0 mm 16 W/m2
07:56 6 °C 4 °C 993.57 hPa WSW 26 km/h 26 km/h 93% 0 mm 16 W/m2
08:01 6 °C 4 °C 993.57 hPa SW 22 km/h 22 km/h 93% 0 mm 21 W/m2
08:06 6 °C 4 °C 993.57 hPa SW 26 km/h 26 km/h 93% 0 mm 40 W/m2
08:11 6 °C 5 °C 993.57 hPa SW 7 km/h 13 km/h 94% 0 mm 46 W/m2
08:16 6 °C 5 °C 993.57 hPa SW 7 km/h 13 km/h 94% 0 mm 46 W/m2
08:22 6 °C 5 °C 993.23 hPa SW 27 km/h 27 km/h 94% 0 mm 74 W/m2
08:27 7 °C 6 °C 993.23 hPa SW 23 km/h 32 km/h 93% 0 mm 148 W/m2
08:32 7 °C 6 °C 993.23 hPa WSW 17 km/h 26 km/h 92% 0 mm 271 W/m2
08:37 6 °C 6 °C 993.23 hPa W 19 km/h 19 km/h 94% 0 mm 79 W/m2
08:42 6 °C 6 °C 993.23 hPa SW 24 km/h 24 km/h 94% 0 mm 141 W/m2
08:47 7 °C 6 °C 993.23 hPa SW 26 km/h 26 km/h 94% 0 mm 153 W/m2
08:52 7 °C 6 °C 993.23 hPa WSW 19 km/h 19 km/h 93% 0 mm 54 W/m2
08:57 7 °C 6 °C 993.23 hPa W 30 km/h 30 km/h 93% 0 mm 79 W/m2
09:02 7 °C 6 °C 993.23 hPa W 19 km/h 19 km/h 93% 0 mm 125 W/m2
09:07 7 °C 6 °C 992.89 hPa SW 32 km/h 32 km/h 92% 0 mm 105 W/m2
09:12 7 °C 6 °C 993.23 hPa SW 32 km/h 32 km/h 92% 0 mm 155 W/m2
09:17 8 °C 6 °C 992.89 hPa SW 14 km/h 35 km/h 89% 0 mm 227 W/m2
09:22 7 °C 6 °C 992.89 hPa SW 11 km/h 15 km/h 92% 0 mm 174 W/m2
09:27 7 °C 6 °C 992.89 hPa SSW 19 km/h 19 km/h 91% 0 mm 271 W/m2
09:32 7 °C 6 °C 992.89 hPa WSW 22 km/h 22 km/h 90% 0 mm 181 W/m2
09:37 8 °C 6 °C 992.55 hPa WSW 17 km/h 17 km/h 90% 0 mm 185 W/m2
09:42 8 °C 6 °C 992.55 hPa SW 31 km/h 31 km/h 89% 0 mm 434 W/m2
09:47 8 °C 6 °C 992.55 hPa SW 32 km/h 32 km/h 89% 0 mm 193 W/m2
09:52 8 °C 6 °C 992.55 hPa S 24 km/h 24 km/h 88% 0 mm 221 W/m2
09:57 8 °C 6 °C 992.55 hPa WSW 22 km/h 22 km/h 88% 0 mm 237 W/m2
10:02 8 °C 6 °C 992.55 hPa SW 19 km/h 19 km/h 87% 0 mm 237 W/m2
10:07 8 °C 6 °C 992.55 hPa WSW 22 km/h 22 km/h 87% 0 mm 271 W/m2
10:16 8 °C 6 °C 992.55 hPa WSW 30 km/h 30 km/h 86% 0 mm 236 W/m2
10:21 8 °C 6 °C 992.55 hPa SW 33 km/h 33 km/h 86% 0 mm 237 W/m2
10:26 8 °C 6 °C 992.55 hPa SW 24 km/h 24 km/h 86% 0 mm 265 W/m2
10:31 8 °C 6 °C 992.21 hPa W 30 km/h 30 km/h 86% 0 mm 190 W/m2
10:36 8 °C 6 °C 992.21 hPa SW 30 km/h 30 km/h 86% 0 mm 186 W/m2
10:41 8 °C 6 °C 992.21 hPa SW 28 km/h 28 km/h 86% 0 mm 137 W/m2
10:46 8 °C 6 °C 992.21 hPa SSW 26 km/h 26 km/h 86% 0 mm 107 W/m2
10:51 8 °C 6 °C 992.21 hPa SW 23 km/h 23 km/h 87% 0 mm 97 W/m2
10:56 8 °C 6 °C 992.21 hPa WSW 28 km/h 28 km/h 86% 0 mm 74 W/m2
11:01 8 °C 6 °C 992.21 hPa SSW 28 km/h 28 km/h 86% 0 mm 63 W/m2
11:06 8 °C 6 °C 992.21 hPa WSW 26 km/h 26 km/h 87% 0 mm 65 W/m2
11:11 8 °C 6 °C 992.21 hPa SW 32 km/h 32 km/h 87% 0 mm 88 W/m2
11:16 8 °C 6 °C 992.21 hPa S 37 km/h 37 km/h 87% 0 mm 120 W/m2
11:21 8 °C 6 °C 991.87 hPa SSW 28 km/h 28 km/h 89% 0 mm 149 W/m2
11:26 8 °C 6 °C 991.87 hPa SW 19 km/h 29 km/h 90% 0 mm 89 W/m2
11:31 8 °C 6 °C 991.87 hPa S 16 km/h 26 km/h 90% 0 mm 102 W/m2
11:36 8 °C 6 °C 991.53 hPa SSW 19 km/h 29 km/h 90% 0 mm 137 W/m2
11:41 8 °C 6 °C 991.53 hPa S 18 km/h 27 km/h 90% 0 mm 155 W/m2
11:46 8 °C 6 °C 991.53 hPa SSW 12 km/h 35 km/h 90% 0 mm 227 W/m2
11:51 8 °C 6 °C 991.2 hPa SSW 22 km/h 28 km/h 91% 0.25 mm 162 W/m2
11:56 8 °C 6 °C 991.2 hPa SSW 14 km/h 21 km/h 91% 0.25 mm 90 W/m2
12:01 8 °C 6 °C 990.86 hPa SSW 19 km/h 27 km/h 91% 0.25 mm 84 W/m2
12:06 8 °C 6 °C 990.86 hPa SSW 17 km/h 27 km/h 91% 0.25 mm 118 W/m2
12:11 8 °C 6 °C 990.86 hPa S 21 km/h 28 km/h 91% 0.25 mm 144 W/m2
12:16 8 °C 6 °C 990.52 hPa SSW 21 km/h 27 km/h 90% 0.25 mm 95 W/m2
12:21 8 °C 6 °C 990.52 hPa SSW 22 km/h 30 km/h 90% 0.25 mm 86 W/m2
12:26 7 °C 6 °C 990.52 hPa SSW 30 km/h 30 km/h 91% 0.25 mm 86 W/m2
13:21 8 °C 6 °C 988.49 hPa S 35 km/h 35 km/h 89% 0 mm 23 W/m2
13:26 8 °C 6 °C 988.49 hPa S 19 km/h 19 km/h 89% 0 mm 25 W/m2
13:31 8 °C 6 °C 988.15 hPa SSW 24 km/h 24 km/h 89% 0 mm 46 W/m2
13:36 8 °C 6 °C 988.15 hPa S 24 km/h 24 km/h 89% 0 mm 51 W/m2
13:41 8 °C 6 °C 988.15 hPa SSE 32 km/h 32 km/h 89% 0.25 mm 58 W/m2
13:46 8 °C 6 °C 987.81 hPa SSW 28 km/h 28 km/h 89% 0.25 mm 44 W/m2
13:50 8 °C 6 °C 987.81 hPa SW 39 km/h 39 km/h 90% 0.25 mm 44 W/m2
13:55 8 °C 6 °C 987.81 hPa WSW 26 km/h 26 km/h 90% 0.25 mm 70 W/m2
14:00 8 °C 6 °C 987.47 hPa SW 30 km/h 30 km/h 90% 0.25 mm 69 W/m2
14:05 8 °C 6 °C 987.47 hPa S 39 km/h 39 km/h 90% 0.25 mm 63 W/m2
14:10 8 °C 6 °C 987.13 hPa SSW 20 km/h 20 km/h 90% 0.51 mm 63 W/m2
14:15 8 °C 6 °C 987.13 hPa S 24 km/h 24 km/h 90% 0.51 mm 47 W/m2
14:20 8 °C 6 °C 986.79 hPa S 19 km/h 19 km/h 90% 0.51 mm 42 W/m2
14:25 8 °C 6 °C 986.79 hPa SSE 32 km/h 32 km/h 90% 0.51 mm 47 W/m2
14:30 8 °C 6 °C 986.79 hPa S 26 km/h 26 km/h 90% 0.51 mm 37 W/m2
14:35 8 °C 6 °C 986.79 hPa S 32 km/h 32 km/h 90% 0.51 mm 28 W/m2
14:40 8 °C 6 °C 986.45 hPa SW 26 km/h 26 km/h 90% 0.25 mm 28 W/m2
14:45 8 °C 6 °C 986.45 hPa S 33 km/h 33 km/h 90% 0.25 mm 35 W/m2
14:50 8 °C 6 °C 986.12 hPa SSW 27 km/h 27 km/h 90% 0.25 mm 42 W/m2
14:55 8 °C 6 °C 986.12 hPa SW 24 km/h 24 km/h 90% 0.25 mm 33 W/m2
15:00 8 °C 6 °C 985.78 hPa SW 33 km/h 33 km/h 91% 0.25 mm 32 W/m2
15:05 8 °C 6 °C 986.12 hPa S 32 km/h 32 km/h 91% 0.25 mm 53 W/m2
15:10 8 °C 6 °C 985.78 hPa S 33 km/h 33 km/h 90% 0 mm 37 W/m2
15:15 8 °C 6 °C 985.78 hPa SSW 33 km/h 33 km/h 90% 0 mm 30 W/m2
15:23 7 °C 6 °C 985.78 hPa SSE 31 km/h 35 km/h 91% 0 mm 25 W/m2
15:28 7 °C 6 °C 985.44 hPa SW 33 km/h 33 km/h 91% 0 mm 21 W/m2
15:33 7 °C 6 °C 985.44 hPa SSW 33 km/h 33 km/h 92% 0 mm 18 W/m2
15:38 7 °C 6 °C 985.1 hPa SSW 28 km/h 28 km/h 92% 0 mm 21 W/m2
15:43 7 °C 6 °C 985.1 hPa SSE 30 km/h 30 km/h 92% 0 mm 26 W/m2
15:48 7 °C 6 °C 985.1 hPa S 18 km/h 18 km/h 92% 0.25 mm 25 W/m2
15:53 7 °C 6 °C 984.76 hPa S 30 km/h 30 km/h 93% 0.25 mm 16 W/m2
15:58 7 °C 6 °C 984.76 hPa WSW 19 km/h 19 km/h 93% 0.25 mm 16 W/m2
16:03 7 °C 6 °C 984.76 hPa SSW 28 km/h 28 km/h 93% 0.25 mm 46 W/m2
16:08 7 °C 6 °C 984.42 hPa S 24 km/h 24 km/h 94% 0.25 mm 32 W/m2
16:13 7 °C 6 °C 984.42 hPa S 22 km/h 22 km/h 94% 0.25 mm 30 W/m2
16:18 7 °C 6 °C 984.08 hPa SSW 19 km/h 19 km/h 94% 0.25 mm 37 W/m2
16:23 7 °C 6 °C 984.08 hPa SW 32 km/h 32 km/h 94% 0.25 mm 21 W/m2
16:28 7 °C 6 °C 984.08 hPa SSE 27 km/h 27 km/h 94% 0.25 mm 12 W/m2
16:33 7 °C 6 °C 983.75 hPa SSW 26 km/h 26 km/h 94% 0.25 mm 9 W/m2
16:38 7 °C 6 °C 983.75 hPa SSW 26 km/h 26 km/h 94% 0.25 mm 7 W/m2
16:43 7 °C 6 °C 983.75 hPa S 33 km/h 33 km/h 94% 0.25 mm 7 W/m2
16:48 7 °C 6 °C 983.75 hPa SSW 26 km/h 26 km/h 94% 0 mm 7 W/m2
16:53 7 °C 6 °C 983.41 hPa S 26 km/h 26 km/h 94% 0 mm 5 W/m2
16:58 7 °C 6 °C 983.41 hPa S 32 km/h 32 km/h 94% 0 mm 7 W/m2
17:03 7 °C 6 °C 983.41 hPa S 26 km/h 26 km/h 93% 0 mm 0 W/m2
17:08 7 °C 6 °C 983.07 hPa SW 26 km/h 26 km/h 93% 0 mm 0 W/m2
17:13 7 °C 6 °C 983.07 hPa SSE 21 km/h 21 km/h 93% 0 mm 0 W/m2
17:18 7 °C 6 °C 983.07 hPa S 32 km/h 32 km/h 93% 0 mm 0 W/m2
17:23 7 °C 6 °C 982.73 hPa SSE 19 km/h 19 km/h 93% 0 mm 0 W/m2
17:28 7 °C 6 °C 982.73 hPa SSE 30 km/h 30 km/h 93% 0 mm 0 W/m2
17:33 7 °C 6 °C 982.73 hPa SW 22 km/h 22 km/h 93% 0 mm 0 W/m2
17:38 7 °C 6 °C 982.73 hPa SSW 26 km/h 26 km/h 93% 0.25 mm 0 W/m2
17:43 7 °C 6 °C 982.39 hPa S 22 km/h 22 km/h 93% 0.25 mm 0 W/m2
17:48 7 °C 6 °C 982.39 hPa SSW 30 km/h 30 km/h 93% 0.25 mm 0 W/m2
17:53 7 °C 6 °C 982.39 hPa S 28 km/h 28 km/h 93% 0.25 mm 0 W/m2
17:58 7 °C 6 °C 982.05 hPa S 28 km/h 28 km/h 93% 0.51 mm 0 W/m2
18:03 7 °C 6 °C 982.05 hPa SSE 30 km/h 30 km/h 94% 0.51 mm 0 W/m2
18:08 7 °C 6 °C 982.05 hPa SE 26 km/h 26 km/h 94% 0.51 mm 0 W/m2
18:13 7 °C 6 °C 981.71 hPa SSE 27 km/h 27 km/h 94% 0.51 mm 0 W/m2
18:18 7 °C 6 °C 981.38 hPa SSW 24 km/h 24 km/h 94% 0.51 mm 0 W/m2
18:23 7 °C 6 °C 981.38 hPa S 26 km/h 26 km/h 94% 0.76 mm 0 W/m2
18:28 7 °C 6 °C 981.04 hPa SSE 28 km/h 28 km/h 94% 0.76 mm 0 W/m2
18:33 7 °C 6 °C 981.04 hPa SSE 24 km/h 24 km/h 94% 1.02 mm 0 W/m2
18:38 7 °C 6 °C 981.04 hPa SSE 30 km/h 30 km/h 94% 1.02 mm 0 W/m2
18:43 7 °C 6 °C 981.04 hPa ESE 32 km/h 32 km/h 95% 0.76 mm 0 W/m2
18:48 7 °C 6 °C 980.7 hPa S 28 km/h 28 km/h 95% 0.76 mm 0 W/m2
18:53 7 °C 6 °C 980.7 hPa S 26 km/h 26 km/h 95% 0.76 mm 0 W/m2
18:58 7 °C 6 °C 980.36 hPa S 32 km/h 32 km/h 95% 0.76 mm 0 W/m2
19:03 7 °C 6 °C 980.36 hPa SE 28 km/h 28 km/h 95% 0.76 mm 0 W/m2
19:08 7 °C 6 °C 980.02 hPa S 24 km/h 24 km/h 95% 0.51 mm 0 W/m2
19:13 7 °C 6 °C 980.02 hPa S 32 km/h 32 km/h 95% 0.51 mm 0 W/m2
19:18 7 °C 6 °C 980.02 hPa S 24 km/h 24 km/h 95% 0.76 mm 0 W/m2
19:23 7 °C 6 °C 980.02 hPa SSE 33 km/h 33 km/h 95% 0.51 mm 0 W/m2
19:28 7 °C 6 °C 979.68 hPa SSE 32 km/h 32 km/h 95% 0.51 mm 0 W/m2
19:33 7 °C 6 °C 979.68 hPa SSE 30 km/h 30 km/h 95% 0.51 mm 0 W/m2
19:38 7 °C 6 °C 979.68 hPa S 26 km/h 26 km/h 95% 0.51 mm 0 W/m2
19:43 7 °C 6 °C 979.68 hPa S 37 km/h 37 km/h 95% 0.51 mm 0 W/m2
19:48 7 °C 6 °C 979.68 hPa S 26 km/h 26 km/h 95% 0.76 mm 0 W/m2
19:53 7 °C 6 °C 979.34 hPa S 32 km/h 32 km/h 95% 0.76 mm 0 W/m2
19:58 7 °C 6 °C 979.34 hPa SSW 20 km/h 20 km/h 95% 0.76 mm 0 W/m2
20:03 7 °C 6 °C 979 hPa SSE 22 km/h 22 km/h 95% 0.51 mm 0 W/m2
20:08 7 °C 6 °C 979 hPa SSE 32 km/h 32 km/h 95% 0.51 mm 0 W/m2
20:13 7 °C 6 °C 979 hPa SSE 30 km/h 30 km/h 95% 0.76 mm 0 W/m2
20:18 7 °C 6 °C 978.67 hPa SSE 20 km/h 20 km/h 95% 0.76 mm 0 W/m2
20:23 7 °C 6 °C 978.67 hPa S 43 km/h 43 km/h 95% 0.76 mm 0 W/m2
20:28 7 °C 6 °C 978.67 hPa S 26 km/h 26 km/h 95% 0.76 mm 0 W/m2
20:33 7 °C 6 °C 979 hPa SW 28 km/h 28 km/h 95% 1.27 mm 0 W/m2
20:38 6 °C 5 °C 979 hPa SSW 17 km/h 17 km/h 93% 1.52 mm 0 W/m2
20:43 6 °C 4 °C 979 hPa WSW 13 km/h 13 km/h 93% 1.52 mm 0 W/m2
20:48 6 °C 4 °C 979 hPa SSW 9 km/h 9 km/h 93% 1.27 mm 0 W/m2
20:53 6 °C 4 °C 979 hPa S 15 km/h 15 km/h 93% 1.52 mm 0 W/m2
20:58 6 °C 4 °C 979 hPa SSW 9 km/h 9 km/h 94% 1.52 mm 0 W/m2
21:03 6 °C 4 °C 979 hPa SSW 13 km/h 13 km/h 94% 1.52 mm 0 W/m2
21:08 6 °C 4 °C 979 hPa SW 9 km/h 9 km/h 94% 1.52 mm 0 W/m2
21:13 6 °C 4 °C 979 hPa SW 15 km/h 15 km/h 94% 1.52 mm 0 W/m2
21:18 6 °C 4 °C 979 hPa S 8 km/h 8 km/h 94% 1.27 mm 0 W/m2
21:23 6 °C 4 °C 979 hPa SSW 9 km/h 9 km/h 94% 1.27 mm 0 W/m2
21:28 5 °C 4 °C 979 hPa SSW 11 km/h 11 km/h 94% 1.27 mm 0 W/m2
21:33 5 °C 4 °C 979 hPa SW 9 km/h 9 km/h 94% 1.02 mm 0 W/m2
21:38 5 °C 4 °C 979 hPa SSW 9 km/h 9 km/h 95% 0.51 mm 0 W/m2
21:43 5 °C 4 °C 979 hPa SW 11 km/h 11 km/h 95% 0.51 mm 0 W/m2
21:48 5 °C 4 °C 979 hPa SW 11 km/h 11 km/h 95% 0.76 mm 0 W/m2
21:53 5 °C 4 °C 979 hPa SSW 9 km/h 9 km/h 95% 0.51 mm 0 W/m2
21:58 5 °C 4 °C 979 hPa WSW 11 km/h 11 km/h 95% 0.51 mm 0 W/m2
22:03 5 °C 4 °C 979 hPa SSW 13 km/h 13 km/h 95% 0.51 mm 0 W/m2
22:08 5 °C 4 °C 979.34 hPa SSW 10 km/h 10 km/h 95% 0.51 mm 0 W/m2
22:13 5 °C 4 °C 979 hPa SW 11 km/h 11 km/h 95% 0.51 mm 0 W/m2
22:18 5 °C 4 °C 979 hPa SW 14 km/h 14 km/h 95% 0.51 mm 0 W/m2
22:23 5 °C 4 °C 979 hPa SSW 13 km/h 13 km/h 95% 0.76 mm 0 W/m2
22:28 5 °C 4 °C 979 hPa SW 11 km/h 11 km/h 95% 0.76 mm 0 W/m2
22:33 5 °C 4 °C 979 hPa SW 10 km/h 10 km/h 95% 0.76 mm 0 W/m2
22:38 5 °C 4 °C 979 hPa S 9 km/h 9 km/h 95% 0.76 mm 0 W/m2
22:43 5 °C 4 °C 979 hPa SW 7 km/h 7 km/h 95% 0.76 mm 0 W/m2
22:48 5 °C 4 °C 979 hPa SSW 11 km/h 11 km/h 95% 0.51 mm 0 W/m2
22:53 5 °C 4 °C 978.67 hPa SW 9 km/h 9 km/h 95% 0.51 mm 0 W/m2
22:58 5 °C 4 °C 978.67 hPa SSW 9 km/h 9 km/h 95% 0.51 mm 0 W/m2
23:03 4 °C 4 °C 979 hPa SW 9 km/h 9 km/h 95% 0.51 mm 0 W/m2
23:08 4 °C 4 °C 979 hPa SSW 15 km/h 15 km/h 95% 0.51 mm 0 W/m2
23:13 4 °C 4 °C 978.67 hPa SW 9 km/h 9 km/h 95% 0.51 mm 0 W/m2
23:18 4 °C 4 °C 978.67 hPa SW 11 km/h 11 km/h 95% 0.51 mm 0 W/m2
23:23 4 °C 4 °C 978.67 hPa SSW 11 km/h 11 km/h 95% 0.25 mm 0 W/m2
23:28 4 °C 4 °C 979 hPa WSW 13 km/h 13 km/h 95% 0.25 mm 0 W/m2
23:33 4 °C 4 °C 979 hPa WSW 13 km/h 13 km/h 95% 0 mm 0 W/m2
23:38 4 °C 4 °C 979 hPa SW 13 km/h 13 km/h 95% 0 mm 0 W/m2
23:43 4 °C 4 °C 978.67 hPa WSW 14 km/h 14 km/h 96% 0 mm 0 W/m2
23:48 4 °C 4 °C 979 hPa SSW 13 km/h 13 km/h 95% 0 mm 0 W/m2
23:53 4 °C 4 °C 979 hPa SSW 11 km/h 11 km/h 96% 0 mm 0 W/m2
23:58 4 °C 4 °C 979 hPa SSW 11 km/h 11 km/h 96% 0 mm 0 W/m2
Compliments of Weather Underground - 3.75 mb